sensor_id;sensor_type;location;lat;lon;timestamp;temperature;humidity
42135;DHT22;28312;43.460;11.810;2022-09-21T00:01:16;11.10;53.30
42135;DHT22;28312;43.460;11.810;2022-09-21T00:05:20;11.00;53.70
42135;DHT22;28312;43.460;11.810;2022-09-21T00:09:23;10.90;53.70
42135;DHT22;28312;43.460;11.810;2022-09-21T00:13:27;10.80;53.90
42135;DHT22;28312;43.460;11.810;2022-09-21T00:17:33;10.80;53.90
42135;DHT22;28312;43.460;11.810;2022-09-21T00:21:37;10.70;54.00
42135;DHT22;28312;43.460;11.810;2022-09-21T00:25:41;10.60;54.00
42135;DHT22;28312;43.460;11.810;2022-09-21T00:29:44;10.50;54.20
42135;DHT22;28312;43.460;11.810;2022-09-21T00:33:48;10.50;54.20
42135;DHT22;28312;43.460;11.810;2022-09-21T00:37:53;10.50;54.20
42135;DHT22;28312;43.460;11.810;2022-09-21T00:41:56;10.40;54.30
42135;DHT22;28312;43.460;11.810;2022-09-21T00:46:03;10.40;54.50
42135;DHT22;28312;43.460;11.810;2022-09-21T00:50:13;10.30;54.60
42135;DHT22;28312;43.460;11.810;2022-09-21T00:54:43;10.30;54.60
42135;DHT22;28312;43.460;11.810;2022-09-21T00:58:49;10.20;54.70
42135;DHT22;28312;43.460;11.810;2022-09-21T01:02:54;10.20;54.70
42135;DHT22;28312;43.460;11.810;2022-09-21T01:07:07;10.10;54.80
42135;DHT22;28312;43.460;11.810;2022-09-21T01:11:28;10.00;55.10
42135;DHT22;28312;43.460;11.810;2022-09-21T01:16:28;9.90;55.30
42135;DHT22;28312;43.460;11.810;2022-09-21T01:24:56;9.80;55.50
42135;DHT22;28312;43.460;11.810;2022-09-21T01:33:50;9.80;55.50
42135;DHT22;28312;43.460;11.810;2022-09-21T01:38:01;9.70;55.40
42135;DHT22;28312;43.460;11.810;2022-09-21T01:42:06;9.70;55.60
42135;DHT22;28312;43.460;11.810;2022-09-21T01:46:16;9.70;55.60
42135;DHT22;28312;43.460;11.810;2022-09-21T01:50:20;9.70;55.70
42135;DHT22;28312;43.460;11.810;2022-09-21T01:54:44;9.60;55.70
42135;DHT22;28312;43.460;11.810;2022-09-21T01:59:08;9.50;56.20
42135;DHT22;28312;43.460;11.810;2022-09-21T02:07:23;9.50;56.00
42135;DHT22;28312;43.460;11.810;2022-09-21T02:11:27;9.40;56.00
42135;DHT22;28312;43.460;11.810;2022-09-21T02:20:19;9.20;56.00
42135;DHT22;28312;43.460;11.810;2022-09-21T02:24:45;9.20;56.20
42135;DHT22;28312;43.460;11.810;2022-09-21T02:29:13;9.20;56.30
42135;DHT22;28312;43.460;11.810;2022-09-21T02:33:30;9.00;56.20
42135;DHT22;28312;43.460;11.810;2022-09-21T02:37:50;8.90;56.50
42135;DHT22;28312;43.460;11.810;2022-09-21T02:42:11;8.90;56.40
42135;DHT22;28312;43.460;11.810;2022-09-21T02:46:36;8.80;56.50
42135;DHT22;28312;43.460;11.810;2022-09-21T02:50:46;8.70;56.60
42135;DHT22;28312;43.460;11.810;2022-09-21T02:54:52;8.70;56.60
42135;DHT22;28312;43.460;11.810;2022-09-21T02:58:58;8.60;56.60
42135;DHT22;28312;43.460;11.810;2022-09-21T03:03:20;8.60;56.70
42135;DHT22;28312;43.460;11.810;2022-09-21T03:07:24;8.60;57.00
42135;DHT22;28312;43.460;11.810;2022-09-21T03:11:27;8.50;56.90
42135;DHT22;28312;43.460;11.810;2022-09-21T03:15:31;8.60;56.80
42135;DHT22;28312;43.460;11.810;2022-09-21T03:19:34;8.50;56.80
42135;DHT22;28312;43.460;11.810;2022-09-21T03:23:39;8.40;57.00
42135;DHT22;28312;43.460;11.810;2022-09-21T03:27:42;8.30;57.10
42135;DHT22;28312;43.460;11.810;2022-09-21T03:31:47;8.30;57.10
42135;DHT22;28312;43.460;11.810;2022-09-21T03:35:51;8.30;57.10
42135;DHT22;28312;43.460;11.810;2022-09-21T03:39:54;8.20;57.20
42135;DHT22;28312;43.460;11.810;2022-09-21T03:43:57;8.20;57.20
42135;DHT22;28312;43.460;11.810;2022-09-21T03:48:01;8.20;57.30
42135;DHT22;28312;43.460;11.810;2022-09-21T03:52:04;8.20;57.30
42135;DHT22;28312;43.460;11.810;2022-09-21T03:56:08;8.20;57.40
42135;DHT22;28312;43.460;11.810;2022-09-21T04:00:11;8.30;57.40
42135;DHT22;28312;43.460;11.810;2022-09-21T04:04:17;8.30;57.50
42135;DHT22;28312;43.460;11.810;2022-09-21T04:08:20;8.40;57.60
42135;DHT22;28312;43.460;11.810;2022-09-21T04:12:24;8.40;57.70
42135;DHT22;28312;43.460;11.810;2022-09-21T04:16:28;8.40;57.80
42135;DHT22;28312;43.460;11.810;2022-09-21T04:20:31;8.40;57.80
42135;DHT22;28312;43.460;11.810;2022-09-21T04:24:35;8.40;57.90
42135;DHT22;28312;43.460;11.810;2022-09-21T04:28:39;8.50;57.90
42135;DHT22;28312;43.460;11.810;2022-09-21T04:32:43;8.50;58.00
42135;DHT22;28312;43.460;11.810;2022-09-21T04:36:47;8.60;58.00
42135;DHT22;28312;43.460;11.810;2022-09-21T04:40:55;8.70;57.80
42135;DHT22;28312;43.460;11.810;2022-09-21T04:44:58;8.70;57.90
42135;DHT22;28312;43.460;11.810;2022-09-21T04:49:01;8.70;57.90
42135;DHT22;28312;43.460;11.810;2022-09-21T04:53:05;8.70;57.90
42135;DHT22;28312;43.460;11.810;2022-09-21T04:57:08;8.70;58.00
42135;DHT22;28312;43.460;11.810;2022-09-21T05:01:12;8.70;58.10
42135;DHT22;28312;43.460;11.810;2022-09-21T05:05:46;8.70;58.10
42135;DHT22;28312;43.460;11.810;2022-09-21T05:09:49;8.90;58.10
42135;DHT22;28312;43.460;11.810;2022-09-21T05:14:05;8.90;57.90
42135;DHT22;28312;43.460;11.810;2022-09-21T05:18:09;9.00;57.80
42135;DHT22;28312;43.460;11.810;2022-09-21T05:22:12;9.10;57.80
42135;DHT22;28312;43.460;11.810;2022-09-21T05:26:18;9.20;57.80
42135;DHT22;28312;43.460;11.810;2022-09-21T05:30:22;9.20;57.90
42135;DHT22;28312;43.460;11.810;2022-09-21T05:38:48;9.20;58.20
42135;DHT22;28312;43.460;11.810;2022-09-21T05:42:51;9.40;58.20
42135;DHT22;28312;43.460;11.810;2022-09-21T05:51:11;9.70;58.50
42135;DHT22;28312;43.460;11.810;2022-09-21T06:04:16;10.50;58.40
42135;DHT22;28312;43.460;11.810;2022-09-21T06:08:19;10.70;58.40
42135;DHT22;28312;43.460;11.810;2022-09-21T06:12:24;10.90;58.40
42135;DHT22;28312;43.460;11.810;2022-09-21T06:16:40;11.20;58.40
42135;DHT22;28312;43.460;11.810;2022-09-21T06:20:44;11.70;58.20
42135;DHT22;28312;43.460;11.810;2022-09-21T06:24:48;12.10;57.80
42135;DHT22;28312;43.460;11.810;2022-09-21T06:28:51;12.60;57.60
42135;DHT22;28312;43.460;11.810;2022-09-21T06:32:58;13.10;57.70
42135;DHT22;28312;43.460;11.810;2022-09-21T06:37:03;13.50;57.40
42135;DHT22;28312;43.460;11.810;2022-09-21T06:41:07;13.90;57.10
42135;DHT22;28312;43.460;11.810;2022-09-21T06:45:10;14.20;57.00
42135;DHT22;28312;43.460;11.810;2022-09-21T06:49:13;14.50;56.90
42135;DHT22;28312;43.460;11.810;2022-09-21T06:53:17;14.70;56.80
42135;DHT22;28312;43.460;11.810;2022-09-21T06:57:20;15.00;56.70
42135;DHT22;28312;43.460;11.810;2022-09-21T07:01:23;15.20;56.80
42135;DHT22;28312;43.460;11.810;2022-09-21T07:05:27;15.60;57.00
42135;DHT22;28312;43.460;11.810;2022-09-21T07:09:31;16.00;57.50
42135;DHT22;28312;43.460;11.810;2022-09-21T07:13:55;16.30;58.00
42135;DHT22;28312;43.460;11.810;2022-09-21T07:17:59;16.60;58.80
42135;DHT22;28312;43.460;11.810;2022-09-21T07:22:09;16.80;58.40
42135;DHT22;28312;43.460;11.810;2022-09-21T07:26:16;17.10;58.40
42135;DHT22;28312;43.460;11.810;2022-09-21T07:30:20;17.30;58.60
42135;DHT22;28312;43.460;11.810;2022-09-21T07:34:23;17.60;58.30
42135;DHT22;28312;43.460;11.810;2022-09-21T07:38:26;17.80;58.40
42135;DHT22;28312;43.460;11.810;2022-09-21T07:42:30;18.00;58.30
42135;DHT22;28312;43.460;11.810;2022-09-21T07:46:33;18.20;58.20
42135;DHT22;28312;43.460;11.810;2022-09-21T07:50:39;18.30;58.00
42135;DHT22;28312;43.460;11.810;2022-09-21T07:54:43;18.40;57.90
42135;DHT22;28312;43.460;11.810;2022-09-21T07:58:47;18.60;57.70
42135;DHT22;28312;43.460;11.810;2022-09-21T08:03:08;18.70;57.60
42135;DHT22;28312;43.460;11.810;2022-09-21T08:07:11;18.90;57.50
42135;DHT22;28312;43.460;11.810;2022-09-21T08:11:17;19.00;57.10
42135;DHT22;28312;43.460;11.810;2022-09-21T08:15:24;19.00;56.70
42135;DHT22;28312;43.460;11.810;2022-09-21T08:19:49;19.10;56.90
42135;DHT22;28312;43.460;11.810;2022-09-21T08:23:52;19.20;56.30
42135;DHT22;28312;43.460;11.810;2022-09-21T08:27:58;19.30;56.40
42135;DHT22;28312;43.460;11.810;2022-09-21T08:32:02;19.60;56.00
42135;DHT22;28312;43.460;11.810;2022-09-21T08:36:07;19.90;55.40
42135;DHT22;28312;43.460;11.810;2022-09-21T08:40:11;19.90;53.50
42135;DHT22;28312;43.460;11.810;2022-09-21T08:44:52;19.90;53.00
42135;DHT22;28312;43.460;11.810;2022-09-21T08:49:04;20.00;53.30
42135;DHT22;28312;43.460;11.810;2022-09-21T08:53:32;20.30;53.70
42135;DHT22;28312;43.460;11.810;2022-09-21T08:57:37;20.70;52.90
42135;DHT22;28312;43.460;11.810;2022-09-21T09:01:52;21.10;52.70
42135;DHT22;28312;43.460;11.810;2022-09-21T09:15:20;21.80;50.50
42135;DHT22;28312;43.460;11.810;2022-09-21T09:24:12;22.50;49.50
42135;DHT22;28312;43.460;11.810;2022-09-21T09:28:35;22.70;47.80
42135;DHT22;28312;43.460;11.810;2022-09-21T09:36:58;23.10;48.10
42135;DHT22;28312;43.460;11.810;2022-09-21T09:49:59;23.60;45.90
42135;DHT22;28312;43.460;11.810;2022-09-21T09:54:13;23.80;45.00
42135;DHT22;28312;43.460;11.810;2022-09-21T09:58:37;24.20;45.00
42135;DHT22;28312;43.460;11.810;2022-09-21T10:02:51;24.70;45.30
42135;DHT22;28312;43.460;11.810;2022-09-21T10:06:54;25.40;43.70
42135;DHT22;28312;43.460;11.810;2022-09-21T10:11:37;25.40;42.50
42135;DHT22;28312;43.460;11.810;2022-09-21T10:15:49;25.40;41.50
42135;DHT22;28312;43.460;11.810;2022-09-21T10:20:00;25.20;40.90
42135;DHT22;28312;43.460;11.810;2022-09-21T10:24:36;25.20;40.20
42135;DHT22;28312;43.460;11.810;2022-09-21T10:29:18;25.40;41.00
42135;DHT22;28312;43.460;11.810;2022-09-21T10:33:30;25.80;40.90
42135;DHT22;28312;43.460;11.810;2022-09-21T10:37:40;25.90;39.60
42135;DHT22;28312;43.460;11.810;2022-09-21T10:41:57;25.80;39.90
42135;DHT22;28312;43.460;11.810;2022-09-21T10:46:01;26.00;40.20
42135;DHT22;28312;43.460;11.810;2022-09-21T10:50:21;26.40;40.50
42135;DHT22;28312;43.460;11.810;2022-09-21T10:54:31;26.60;40.40
42135;DHT22;28312;43.460;11.810;2022-09-21T10:58:35;26.80;40.00
42135;DHT22;28312;43.460;11.810;2022-09-21T11:02:38;26.90;40.10
42135;DHT22;28312;43.460;11.810;2022-09-21T11:06:48;27.20;40.40
42135;DHT22;28312;43.460;11.810;2022-09-21T11:11:31;27.60;40.00
42135;DHT22;28312;43.460;11.810;2022-09-21T11:24:49;28.00;40.00
42135;DHT22;28312;43.460;11.810;2022-09-21T11:29:21;28.00;39.80
42135;DHT22;28312;43.460;11.810;2022-09-21T11:33:40;27.90;39.50
42135;DHT22;28312;43.460;11.810;2022-09-21T11:37:54;27.80;39.50
42135;DHT22;28312;43.460;11.810;2022-09-21T11:55:15;27.50;39.00
42135;DHT22;28312;43.460;11.810;2022-09-21T12:03:58;27.10;39.20
42135;DHT22;28312;43.460;11.810;2022-09-21T12:12:20;26.90;39.10
42135;DHT22;28312;43.460;11.810;2022-09-21T12:24:49;26.70;39.50
42135;DHT22;28312;43.460;11.810;2022-09-21T12:29:00;26.60;39.40
42135;DHT22;28312;43.460;11.810;2022-09-21T12:37:22;26.40;39.60
42135;DHT22;28312;43.460;11.810;2022-09-21T12:41:46;26.20;39.50
42135;DHT22;28312;43.460;11.810;2022-09-21T12:46:13;26.40;39.60
42135;DHT22;28312;43.460;11.810;2022-09-21T12:50:41;26.50;39.20
42135;DHT22;28312;43.460;11.810;2022-09-21T12:55:18;26.40;39.10
42135;DHT22;28312;43.460;11.810;2022-09-21T12:59:39;26.40;39.30
42135;DHT22;28312;43.460;11.810;2022-09-21T13:08:42;26.80;38.80
42135;DHT22;28312;43.460;11.810;2022-09-21T13:12:52;26.80;38.20
42135;DHT22;28312;43.460;11.810;2022-09-21T13:16:59;26.90;38.50
42135;DHT22;28312;43.460;11.810;2022-09-21T13:21:19;27.10;38.30
42135;DHT22;28312;43.460;11.810;2022-09-21T13:25:25;27.00;37.80
42135;DHT22;28312;43.460;11.810;2022-09-21T13:29:32;26.90;36.90
42135;DHT22;28312;43.460;11.810;2022-09-21T13:42:47;26.70;37.60
42135;DHT22;28312;43.460;11.810;2022-09-21T13:46:52;26.80;37.40
42135;DHT22;28312;43.460;11.810;2022-09-21T13:50:58;26.70;37.50
42135;DHT22;28312;43.460;11.810;2022-09-21T13:55:06;26.70;37.60
42135;DHT22;28312;43.460;11.810;2022-09-21T13:59:23;26.60;37.70
42135;DHT22;28312;43.460;11.810;2022-09-21T14:03:59;26.70;37.80
42135;DHT22;28312;43.460;11.810;2022-09-21T14:12:21;26.60;37.80
42135;DHT22;28312;43.460;11.810;2022-09-21T14:20:36;26.20;37.40
42135;DHT22;28312;43.460;11.810;2022-09-21T14:24:45;25.90;37.60
42135;DHT22;28312;43.460;11.810;2022-09-21T14:28:49;25.90;37.50
42135;DHT22;28312;43.460;11.810;2022-09-21T14:37:20;25.90;37.70
42135;DHT22;28312;43.460;11.810;2022-09-21T14:41:41;25.90;37.70
42135;DHT22;28312;43.460;11.810;2022-09-21T14:50:44;25.60;37.60
42135;DHT22;28312;43.460;11.810;2022-09-21T15:08:09;24.60;37.70
42135;DHT22;28312;43.460;11.810;2022-09-21T15:16:46;24.20;37.80
42135;DHT22;28312;43.460;11.810;2022-09-21T15:21:02;24.10;38.10
42135;DHT22;28312;43.460;11.810;2022-09-21T15:25:11;24.00;37.90
42135;DHT22;28312;43.460;11.810;2022-09-21T15:29:30;23.70;38.20
42135;DHT22;28312;43.460;11.810;2022-09-21T15:33:38;23.70;38.50
42135;DHT22;28312;43.460;11.810;2022-09-21T15:37:42;23.50;38.20
42135;DHT22;28312;43.460;11.810;2022-09-21T15:42:19;23.20;38.50
42135;DHT22;28312;43.460;11.810;2022-09-21T15:46:25;23.10;38.50
42135;DHT22;28312;43.460;11.810;2022-09-21T15:50:29;22.90;38.30
42135;DHT22;28312;43.460;11.810;2022-09-21T15:54:35;22.70;38.10
42135;DHT22;28312;43.460;11.810;2022-09-21T15:58:42;22.40;38.10
42135;DHT22;28312;43.460;11.810;2022-09-21T16:03:04;22.20;38.00
42135;DHT22;28312;43.460;11.810;2022-09-21T16:07:30;22.00;38.20
42135;DHT22;28312;43.460;11.810;2022-09-21T16:11:34;21.80;38.30
42135;DHT22;28312;43.460;11.810;2022-09-21T16:15:39;21.70;38.10
42135;DHT22;28312;43.460;11.810;2022-09-21T16:20:12;21.40;38.00
42135;DHT22;28312;43.460;11.810;2022-09-21T16:24:19;21.10;38.10
42135;DHT22;28312;43.460;11.810;2022-09-21T16:28:35;20.80;38.40
42135;DHT22;28312;43.460;11.810;2022-09-21T16:32:39;20.60;38.50
42135;DHT22;28312;43.460;11.810;2022-09-21T16:36:47;20.30;38.60
42135;DHT22;28312;43.460;11.810;2022-09-21T16:40:52;20.00;38.80
42135;DHT22;28312;43.460;11.810;2022-09-21T16:44:56;19.70;38.90
42135;DHT22;28312;43.460;11.810;2022-09-21T16:49:00;19.50;39.10
42135;DHT22;28312;43.460;11.810;2022-09-21T16:53:04;19.20;39.10
42135;DHT22;28312;43.460;11.810;2022-09-21T16:57:10;19.00;39.30
42135;DHT22;28312;43.460;11.810;2022-09-21T17:01:17;18.70;39.60
42135;DHT22;28312;43.460;11.810;2022-09-21T17:05:22;18.50;39.90
42135;DHT22;28312;43.460;11.810;2022-09-21T17:09:41;18.30;40.00
42135;DHT22;28312;43.460;11.810;2022-09-21T17:13:54;18.20;40.10
42135;DHT22;28312;43.460;11.810;2022-09-21T17:18:03;18.00;40.20
42135;DHT22;28312;43.460;11.810;2022-09-21T17:22:09;17.80;40.40
42135;DHT22;28312;43.460;11.810;2022-09-21T17:26:20;17.70;40.50
42135;DHT22;28312;43.460;11.810;2022-09-21T17:30:24;17.50;40.60
42135;DHT22;28312;43.460;11.810;2022-09-21T17:34:29;17.30;40.80
42135;DHT22;28312;43.460;11.810;2022-09-21T17:38:34;17.20;41.20
42135;DHT22;28312;43.460;11.810;2022-09-21T17:42:39;17.10;41.30
42135;DHT22;28312;43.460;11.810;2022-09-21T17:46:53;16.90;41.40
42135;DHT22;28312;43.460;11.810;2022-09-21T17:51:00;16.80;41.60
42135;DHT22;28312;43.460;11.810;2022-09-21T17:55:05;16.70;41.70
42135;DHT22;28312;43.460;11.810;2022-09-21T18:03:29;16.60;41.80
42135;DHT22;28312;43.460;11.810;2022-09-21T18:07:33;16.50;41.90
42135;DHT22;28312;43.460;11.810;2022-09-21T18:11:52;16.40;42.30
42135;DHT22;28312;43.460;11.810;2022-09-21T18:16:25;16.30;42.50
42135;DHT22;28312;43.460;11.810;2022-09-21T18:20:52;16.20;42.60
42135;DHT22;28312;43.460;11.810;2022-09-21T18:25:31;16.20;42.60
42135;DHT22;28312;43.460;11.810;2022-09-21T18:29:35;16.10;42.90
42135;DHT22;28312;43.460;11.810;2022-09-21T18:38:39;15.90;43.80
42135;DHT22;28312;43.460;11.810;2022-09-21T18:55:36;15.60;44.50
42135;DHT22;28312;43.460;11.810;2022-09-21T18:59:40;15.50;44.50
42135;DHT22;28312;43.460;11.810;2022-09-21T19:03:45;15.50;44.50
42135;DHT22;28312;43.460;11.810;2022-09-21T19:08:09;15.30;44.60
42135;DHT22;28312;43.460;11.810;2022-09-21T19:17:05;15.10;44.70
42135;DHT22;28312;43.460;11.810;2022-09-21T19:21:22;15.10;44.90
42135;DHT22;28312;43.460;11.810;2022-09-21T19:25:41;14.90;45.00
42135;DHT22;28312;43.460;11.810;2022-09-21T19:30:09;14.90;45.10
42135;DHT22;28312;43.460;11.810;2022-09-21T19:34:16;14.90;45.20
42135;DHT22;28312;43.460;11.810;2022-09-21T19:38:19;14.80;45.20
42135;DHT22;28312;43.460;11.810;2022-09-21T19:42:42;14.70;45.30
42135;DHT22;28312;43.460;11.810;2022-09-21T19:51:07;14.70;45.30
42135;DHT22;28312;43.460;11.810;2022-09-21T19:55:35;14.60;45.30
42135;DHT22;28312;43.460;11.810;2022-09-21T19:59:58;14.40;45.50
42135;DHT22;28312;43.460;11.810;2022-09-21T20:04:03;14.30;45.50
42135;DHT22;28312;43.460;11.810;2022-09-21T20:12:39;14.20;45.60
42135;DHT22;28312;43.460;11.810;2022-09-21T20:20:56;13.80;45.70
42135;DHT22;28312;43.460;11.810;2022-09-21T20:29:09;13.60;45.80
42135;DHT22;28312;43.460;11.810;2022-09-21T20:33:17;13.40;45.90
42135;DHT22;28312;43.460;11.810;2022-09-21T20:37:24;13.20;46.10
42135;DHT22;28312;43.460;11.810;2022-09-21T20:41:29;13.10;46.10
42135;DHT22;28312;43.460;11.810;2022-09-21T20:45:33;13.00;46.10
42135;DHT22;28312;43.460;11.810;2022-09-21T20:49:37;12.80;46.20
42135;DHT22;28312;43.460;11.810;2022-09-21T20:53:41;12.50;46.30
42135;DHT22;28312;43.460;11.810;2022-09-21T20:57:45;12.40;46.30
42135;DHT22;28312;43.460;11.810;2022-09-21T21:01:49;12.30;46.30
42135;DHT22;28312;43.460;11.810;2022-09-21T21:05:52;12.10;46.50
42135;DHT22;28312;43.460;11.810;2022-09-21T21:09:56;12.00;46.50
42135;DHT22;28312;43.460;11.810;2022-09-21T21:14:00;11.80;46.70
42135;DHT22;28312;43.460;11.810;2022-09-21T21:18:07;11.70;46.80
42135;DHT22;28312;43.460;11.810;2022-09-21T21:22:12;11.60;47.00
42135;DHT22;28312;43.460;11.810;2022-09-21T21:26:16;11.50;47.10
42135;DHT22;28312;43.460;11.810;2022-09-21T21:30:20;11.40;47.20
42135;DHT22;28312;43.460;11.810;2022-09-21T21:34:27;11.30;47.20
42135;DHT22;28312;43.460;11.810;2022-09-21T21:38:31;11.20;47.20
42135;DHT22;28312;43.460;11.810;2022-09-21T21:42:35;10.90;47.30
42135;DHT22;28312;43.460;11.810;2022-09-21T21:46:38;10.70;47.40
42135;DHT22;28312;43.460;11.810;2022-09-21T21:50:41;10.60;47.50
42135;DHT22;28312;43.460;11.810;2022-09-21T21:54:46;10.40;47.60
42135;DHT22;28312;43.460;11.810;2022-09-21T21:58:53;10.20;47.70
42135;DHT22;28312;43.460;11.810;2022-09-21T22:02:57;10.10;48.00
42135;DHT22;28312;43.460;11.810;2022-09-21T22:07:02;10.00;48.00
42135;DHT22;28312;43.460;11.810;2022-09-21T22:11:06;10.00;48.20
42135;DHT22;28312;43.460;11.810;2022-09-21T22:15:10;10.20;48.30
42135;DHT22;28312;43.460;11.810;2022-09-21T22:19:14;10.50;48.30
42135;DHT22;28312;43.460;11.810;2022-09-21T22:23:17;10.70;48.30
42135;DHT22;28312;43.460;11.810;2022-09-21T22:27:21;11.00;48.40
42135;DHT22;28312;43.460;11.810;2022-09-21T22:31:28;11.40;48.40
42135;DHT22;28312;43.460;11.810;2022-09-21T22:35:31;11.60;48.30
42135;DHT22;28312;43.460;11.810;2022-09-21T22:39:35;11.70;48.20
42135;DHT22;28312;43.460;11.810;2022-09-21T22:43:39;11.90;48.20
42135;DHT22;28312;43.460;11.810;2022-09-21T22:47:42;11.90;48.20
42135;DHT22;28312;43.460;11.810;2022-09-21T22:51:46;12.00;48.20
42135;DHT22;28312;43.460;11.810;2022-09-21T22:56:01;12.00;48.10
42135;DHT22;28312;43.460;11.810;2022-09-21T23:00:06;12.00;48.20
42135;DHT22;28312;43.460;11.810;2022-09-21T23:04:11;12.00;48.10
42135;DHT22;28312;43.460;11.810;2022-09-21T23:08:15;11.90;48.10
42135;DHT22;28312;43.460;11.810;2022-09-21T23:12:18;11.80;48.10
42135;DHT22;28312;43.460;11.810;2022-09-21T23:16:22;11.70;48.10
42135;DHT22;28312;43.460;11.810;2022-09-21T23:20:26;11.70;48.00
42135;DHT22;28312;43.460;11.810;2022-09-21T23:24:29;11.60;48.00
42135;DHT22;28312;43.460;11.810;2022-09-21T23:28:34;11.20;48.10
42135;DHT22;28312;43.460;11.810;2022-09-21T23:32:37;11.00;48.20
42135;DHT22;28312;43.460;11.810;2022-09-21T23:36:43;10.80;48.30
42135;DHT22;28312;43.460;11.810;2022-09-21T23:40:46;10.70;48.30
42135;DHT22;28312;43.460;11.810;2022-09-21T23:44:50;10.40;48.40
42135;DHT22;28312;43.460;11.810;2022-09-21T23:48:54;10.20;48.50
42135;DHT22;28312;43.460;11.810;2022-09-21T23:52:57;9.90;48.60
42135;DHT22;28312;43.460;11.810;2022-09-21T23:57:01;9.70;48.90
